Portada
METAR-TAF:

METAR-TAF

Aeroports :

Tegucigalpa, Hondures

latitud: 14-03N, longitud: 087-13W, altitud: 994 m

Observació

L'informe es va fer fa 18 minuts, a les 05:00 UTC
Vent 6 kt del Sud
Temperatura 17°C
Humitat 72%
Pressió 1020 hPa
Visibilitat 10 km o més
Escasses núvols a una alçada de 2800 ft

METAR: MHTG 270500Z 17006KT 9999 FEW028 17/12 Q1020 A3012 NOSIG

Hora: 23:18 (05:18 UTC)

Pronòstic

L'informe es va fer fa 6 hores i 48 minuts, a les 22:30 UTC
Pronòstic vàlid del 27 a les 00 UTC al 27 a les 24 UTC
Vent 4 kt del Est
Visibilitat 10 km o més
Escasses núvols a una alçada de 2800 ft
Evolucionant progressivament
l' 27 a les 01 UTC al 27 a les 03 UTC
Vent kt del Nord
Evolucionant progressivament
l' 27 a les 19 UTC al 27 a les 21 UTC
Vent 4 kt del Sud-Est
Cel ennuvolat a una alçada de 2800 ft, Cumulus congestus.

TAF: MHTG 262230Z 2700/2724 10004KT 9999 FEW028 TX31/2719Z TN14/2712Z BECMG 2701/2703 00000KT BECMG 2719/2721 13004KT BKN028TCU

Observacions i pronòstics meteorològics de més de 4000 aeroports (METAR i TAF).

Les estacions disponibles són els punts grocs i vermells al mapa.

Posi el ratolí al punt desitjat per veure el nom de l'estació.

Feu clic per veure les observacions i els pronòstics meteorològics.

Per canviar el mapa: feu clic els botons verds amb una creu de color negre per apropar; al botó verd amb un guió per allunyar la imatge; o en les fletxes verdes per a mapes adjacents.


METAR-TAF: